createdAt,value
2019-01-11T00:00:43.749Z,1.70
2019-01-11T00:03:12.486Z,1.70
2019-01-11T00:05:41.323Z,1.70
2019-01-11T00:08:09.710Z,1.70
2019-01-11T00:10:38.422Z,1.70
2019-01-11T00:13:06.967Z,1.70
2019-01-11T00:15:35.359Z,1.70
2019-01-11T00:18:03.806Z,1.70
2019-01-11T00:20:32.120Z,1.70
2019-01-11T00:23:00.437Z,1.80
2019-01-11T00:25:28.958Z,1.80
2019-01-11T00:27:57.666Z,1.80
2019-01-11T00:30:26.169Z,1.80
2019-01-11T00:32:54.552Z,1.80
2019-01-11T00:35:23.211Z,1.80
2019-01-11T00:37:51.515Z,1.80
2019-01-11T00:40:19.955Z,1.80
2019-01-11T00:42:48.323Z,1.80
2019-01-11T00:45:16.736Z,1.80
2019-01-11T00:47:45.466Z,1.80
2019-01-11T00:50:14.339Z,1.80
2019-01-11T00:52:42.812Z,1.80
2019-01-11T00:55:11.579Z,1.80
2019-01-11T00:57:40.194Z,1.80
2019-01-11T01:00:18.006Z,1.80
2019-01-11T01:02:46.333Z,1.80
2019-01-11T01:05:14.757Z,1.80
2019-01-11T01:07:43.151Z,1.80
2019-01-11T01:10:11.544Z,1.80
2019-01-11T01:12:40.050Z,1.80
2019-01-11T01:15:11.033Z,1.70
2019-01-11T01:17:39.394Z,1.80
2019-01-11T01:20:11.456Z,1.70
2019-01-11T01:22:39.804Z,1.70
2019-01-11T01:25:09.777Z,1.70
2019-01-11T01:27:38.479Z,1.70
2019-01-11T01:30:18.134Z,1.70
2019-01-11T01:32:46.506Z,1.80
2019-01-11T01:35:14.883Z,1.80
2019-01-11T01:37:43.683Z,1.80
2019-01-11T01:40:14.399Z,1.70
2019-01-11T01:42:43.026Z,1.70
2019-01-11T01:45:14.796Z,1.70
2019-01-11T01:47:43.232Z,1.70
2019-01-11T01:50:12.430Z,1.70
2019-01-11T01:52:41.031Z,1.60
2019-01-11T01:55:11.367Z,1.60
2019-01-11T01:57:39.805Z,1.60
2019-01-11T02:00:14.573Z,1.60
2019-01-11T02:02:42.926Z,1.60
2019-01-11T02:05:11.403Z,1.50
2019-01-11T02:07:39.971Z,1.20
2019-01-11T02:10:11.128Z,1.20
2019-01-11T02:12:39.534Z,1.20
2019-01-11T02:15:09.713Z,1.30
2019-01-11T02:17:38.465Z,1.20
2019-01-11T02:20:28.279Z,1.20
2019-01-11T02:22:56.906Z,1.30
2019-01-11T02:25:25.257Z,1.30
2019-01-11T02:27:53.666Z,1.30
2019-01-11T02:30:22.406Z,1.30
2019-01-11T02:32:52.848Z,1.30
2019-01-11T02:35:25.243Z,1.30
2019-01-11T02:37:53.562Z,1.30
2019-01-11T02:40:21.873Z,1.30
2019-01-11T02:42:50.359Z,1.20
2019-01-11T02:45:19.425Z,1.10
2019-01-11T02:47:47.767Z,1.20
2019-01-11T02:50:16.204Z,1.30
2019-01-11T02:52:44.676Z,1.30
2019-01-11T02:55:13.094Z,1.30
2019-01-11T02:57:41.763Z,1.30
2019-01-11T03:00:16.239Z,1.20
2019-01-11T03:02:44.722Z,1.20
2019-01-11T03:05:13.702Z,1.20
2019-01-11T03:07:42.065Z,1.20
2019-01-11T03:10:13.474Z,1.20
2019-01-11T03:12:41.835Z,1.20
2019-01-11T03:15:11.007Z,1.00
2019-01-11T03:17:39.434Z,1.10
2019-01-11T03:20:10.543Z,1.10
2019-01-11T03:22:39.022Z,1.10
2019-01-11T03:25:09.666Z,1.10
2019-01-11T03:27:38.025Z,1.10
2019-01-11T03:30:14.868Z,1.20
2019-01-11T03:32:43.710Z,1.20
2019-01-11T03:35:16.878Z,1.30
2019-01-11T03:37:46.924Z,1.30
2019-01-11T03:40:18.176Z,1.30
2019-01-11T03:42:48.279Z,1.30
2019-01-11T03:45:18.714Z,1.30
2019-01-11T03:47:47.511Z,1.40
2019-01-11T03:50:17.420Z,1.30
2019-01-11T03:52:46.284Z,1.40
2019-01-11T03:55:15.487Z,1.30
2019-01-11T03:57:43.972Z,1.40
2019-01-11T04:00:18.681Z,1.40
2019-01-11T04:02:48.176Z,1.40
2019-01-11T04:05:16.470Z,1.30
2019-01-11T04:07:49.042Z,1.40
2019-01-11T04:10:19.570Z,1.40
2019-01-11T04:12:48.539Z,1.40
2019-01-11T04:15:18.711Z,1.40
2019-01-11T04:17:49.311Z,1.40
2019-01-11T04:20:18.769Z,1.30
2019-01-11T04:22:51.156Z,1.30
2019-01-11T04:25:21.232Z,1.30
2019-01-11T04:27:51.061Z,1.40
2019-01-11T04:30:19.896Z,1.40
2019-01-11T04:32:48.401Z,1.40
2019-01-11T04:35:16.995Z,1.40
2019-01-11T04:37:45.401Z,1.40
2019-01-11T04:40:14.474Z,1.30
2019-01-11T04:42:42.832Z,1.40
2019-01-11T04:45:11.207Z,1.30
2019-01-11T04:47:39.620Z,1.40
2019-01-11T04:50:12.056Z,1.30
2019-01-11T04:52:40.571Z,1.30
2019-01-11T04:55:09.035Z,1.30
2019-01-11T04:57:41.485Z,1.30
2019-01-11T05:00:13.040Z,1.30
2019-01-11T05:02:41.758Z,1.30
2019-01-11T05:05:10.205Z,1.30
2019-01-11T05:07:38.569Z,1.30
2019-01-11T05:10:10.252Z,1.20
2019-01-11T05:12:39.028Z,1.20
2019-01-11T05:15:07.968Z,1.20
2019-01-11T05:17:36.322Z,1.20
2019-01-11T05:20:07.979Z,1.30
2019-01-11T05:22:36.424Z,1.20
2019-01-11T05:25:06.089Z,1.30
2019-01-11T05:27:34.390Z,1.30
2019-01-11T05:30:03.668Z,1.20
2019-01-11T05:32:32.020Z,1.20
2019-01-11T05:35:00.477Z,1.20
2019-01-11T05:37:28.754Z,1.20
2019-01-11T05:39:57.586Z,1.20
2019-01-11T05:42:25.934Z,1.20
2019-01-11T05:44:54.443Z,1.20
2019-01-11T05:47:22.960Z,1.20
2019-01-11T05:50:00.178Z,1.20
2019-01-11T05:52:28.815Z,1.20
2019-01-11T05:54:57.374Z,1.20
2019-01-11T05:57:25.874Z,1.20
2019-01-11T05:59:55.798Z,1.20
2019-01-11T06:02:24.328Z,1.20
2019-01-11T06:04:53.082Z,1.10
2019-01-11T06:07:22.405Z,1.10
2019-01-11T06:09:51.130Z,1.10
2019-01-11T06:12:23.502Z,1.10
2019-01-11T06:14:51.929Z,1.10
2019-01-11T06:17:20.319Z,1.10
2019-01-11T06:19:48.627Z,1.10
2019-01-11T06:22:17.245Z,1.00
2019-01-11T06:24:45.897Z,1.10
2019-01-11T06:27:14.227Z,1.10
2019-01-11T06:29:42.837Z,1.10
2019-01-11T06:32:11.163Z,1.10
2019-01-11T06:34:39.514Z,1.10
2019-01-11T06:37:08.178Z,1.10
2019-01-11T06:39:36.536Z,1.10
2019-01-11T06:42:06.635Z,1.10
2019-01-11T06:44:38.876Z,1.10
2019-01-11T06:47:04.967Z,1.10
2019-01-11T06:49:33.275Z,1.10
2019-01-11T06:52:01.858Z,1.20
2019-01-11T06:54:30.139Z,1.40
2019-01-11T06:56:58.862Z,1.40
2019-01-11T06:59:27.184Z,1.30
2019-01-11T07:01:55.485Z,1.30
2019-01-11T07:04:23.992Z,1.30
2019-01-11T07:06:52.281Z,1.30
2019-01-11T07:09:20.597Z,1.20
2019-01-11T07:11:48.899Z,1.30
2019-01-11T07:14:17.345Z,1.20
2019-01-11T07:16:45.783Z,1.20
2019-01-11T07:19:14.123Z,1.20
2019-01-11T07:21:42.428Z,1.20
2019-01-11T07:24:11.107Z,1.20
2019-01-11T07:26:39.400Z,1.20
2019-01-11T07:29:07.756Z,1.20
2019-01-11T07:31:36.151Z,1.30
2019-01-11T07:34:04.621Z,1.20
2019-01-11T07:36:33.380Z,1.20
2019-01-11T07:41:39.934Z,1.20
2019-01-11T07:44:08.273Z,1.20
2019-01-11T07:46:37.191Z,1.20
2019-01-11T07:49:05.643Z,1.20
2019-01-11T07:51:34.146Z,1.20
2019-01-11T07:54:03.020Z,1.30
2019-01-11T07:56:31.489Z,1.30
2019-01-11T07:58:59.766Z,1.30
2019-01-11T08:01:29.817Z,1.40
2019-01-11T08:03:58.378Z,1.40
2019-01-11T08:06:27.704Z,1.30
2019-01-11T08:08:56.045Z,1.30
2019-01-11T08:11:30.565Z,1.30
2019-01-11T08:13:59.942Z,1.20
2019-01-11T08:16:28.508Z,1.20
2019-01-11T08:18:56.860Z,1.20
2019-01-11T08:21:25.224Z,1.20
2019-01-11T08:23:53.919Z,1.20
2019-01-11T08:26:22.535Z,1.20
2019-01-11T08:28:50.876Z,1.20
2019-01-11T08:31:19.181Z,1.20
2019-01-11T08:33:47.549Z,1.20
2019-01-11T08:36:16.124Z,1.20
2019-01-11T08:38:44.463Z,1.20
2019-01-11T08:41:13.066Z,1.20
2019-01-11T08:43:41.363Z,1.20
2019-01-11T08:46:11.702Z,1.20
2019-01-11T08:48:39.993Z,1.20
2019-01-11T08:51:08.414Z,1.20
2019-01-11T08:53:36.889Z,1.30
2019-01-11T08:56:08.525Z,1.40
2019-01-11T08:58:35.903Z,1.40
2019-01-11T09:01:04.259Z,1.40
2019-01-11T09:03:32.588Z,1.40
2019-01-11T09:06:01.474Z,1.20
2019-01-11T09:08:30.163Z,1.10
2019-01-11T09:10:58.654Z,1.00
2019-01-11T09:13:31.569Z,1.10
2019-01-11T09:15:59.916Z,1.20
2019-01-11T09:18:30.082Z,1.20
2019-01-11T09:20:58.349Z,1.30
2019-01-11T09:23:26.899Z,1.30
2019-01-11T09:25:55.174Z,1.30
2019-01-11T09:28:23.510Z,1.40
2019-01-11T09:30:51.801Z,1.40
2019-01-11T09:33:20.778Z,1.40
2019-01-11T09:35:52.957Z,1.40
2019-01-11T09:38:21.340Z,1.40
2019-01-11T09:40:49.914Z,1.40
2019-01-11T09:43:18.298Z,1.40
2019-01-11T09:45:46.590Z,1.50
2019-01-11T09:48:15.367Z,1.60
2019-01-11T09:50:43.658Z,1.70
2019-01-11T09:53:12.065Z,1.50
2019-01-11T09:55:40.361Z,1.60
2019-01-11T09:58:08.665Z,1.60
2019-01-11T10:00:37.056Z,1.70
2019-01-11T10:03:06.339Z,1.90
2019-01-11T10:05:34.975Z,1.80
2019-01-11T10:08:03.589Z,1.50
2019-01-11T10:10:31.965Z,1.70
2019-01-11T10:13:00.262Z,1.90
2019-01-11T10:15:28.610Z,2.10
2019-01-11T10:17:57.104Z,2.40
2019-01-11T10:20:25.429Z,2.60
2019-01-11T10:22:53.978Z,2.90
2019-01-11T10:25:22.340Z,3.10
2019-01-11T10:27:50.675Z,3.40
2019-01-11T10:30:22.321Z,3.60
2019-01-11T10:32:50.706Z,3.80
2019-01-11T10:35:19.154Z,3.90
2019-01-11T10:37:50.943Z,4.00
2019-01-11T10:40:19.275Z,4.00
2019-01-11T10:42:47.649Z,4.00
2019-01-11T10:45:18.773Z,4.00
2019-01-11T10:47:47.195Z,4.10
2019-01-11T10:50:17.213Z,4.20
2019-01-11T10:52:45.751Z,4.10
2019-01-11T10:55:16.704Z,3.70
2019-01-11T10:57:45.820Z,3.60
2019-01-11T11:00:17.244Z,3.50
2019-01-11T11:02:45.603Z,3.40
2019-01-11T11:05:15.374Z,3.10
2019-01-11T11:07:44.222Z,3.20
2019-01-11T11:10:14.216Z,3.40
2019-01-11T11:12:42.759Z,3.60
2019-01-11T11:15:13.497Z,3.70
2019-01-11T11:17:41.892Z,3.80
2019-01-11T11:20:13.036Z,3.90
2019-01-11T11:22:41.922Z,4.00
2019-01-11T11:25:13.114Z,4.00
2019-01-11T11:27:41.742Z,3.90
2019-01-11T11:30:12.839Z,3.90
2019-01-11T11:32:45.608Z,3.90
2019-01-11T11:35:14.111Z,3.90
2019-01-11T11:37:42.661Z,3.90
2019-01-11T11:40:11.333Z,4.00
2019-01-11T11:42:39.643Z,3.90
2019-01-11T11:45:08.022Z,3.80
2019-01-11T11:47:36.349Z,3.90
2019-01-11T11:50:08.218Z,4.00
2019-01-11T11:52:36.722Z,3.90
2019-01-11T11:55:07.512Z,3.90
2019-01-11T11:57:37.256Z,3.90
2019-01-11T12:00:20.019Z,3.90
2019-01-11T12:02:48.697Z,3.60
2019-01-11T12:05:17.025Z,3.60
2019-01-11T12:07:45.444Z,3.70
2019-01-11T12:10:16.503Z,3.80
2019-01-11T12:12:44.897Z,3.90
2019-01-11T12:15:16.251Z,4.00
2019-01-11T12:17:44.595Z,3.80
2019-01-11T12:20:19.233Z,3.70
2019-01-11T12:22:48.397Z,3.60
2019-01-11T12:25:18.016Z,3.40
2019-01-11T12:27:46.446Z,3.20
2019-01-11T12:30:22.250Z,3.00
2019-01-11T12:32:50.670Z,3.00
2019-01-11T12:35:19.350Z,2.90
2019-01-11T12:37:48.063Z,2.90
2019-01-11T12:40:16.439Z,2.90
2019-01-11T12:42:45.137Z,2.70
2019-01-11T12:45:15.279Z,2.50
2019-01-11T12:47:43.983Z,2.60
2019-01-11T12:50:21.676Z,2.70
2019-01-11T12:52:50.352Z,2.60
2019-01-11T12:55:18.891Z,2.50
2019-01-11T12:57:47.690Z,2.60
2019-01-11T13:00:17.659Z,2.60
2019-01-11T13:02:46.063Z,2.70
2019-01-11T13:05:16.979Z,2.70
2019-01-11T13:07:45.490Z,2.60
2019-01-11T13:10:16.613Z,2.40
2019-01-11T13:12:45.029Z,2.00
2019-01-11T13:15:18.551Z,2.00
2019-01-11T13:17:47.082Z,2.10
2019-01-11T13:20:17.719Z,2.00
2019-01-11T13:22:46.461Z,1.90
2019-01-11T13:25:14.902Z,1.90
2019-01-11T13:27:43.197Z,2.00
2019-01-11T13:30:16.567Z,1.90
2019-01-11T13:32:45.491Z,1.90
2019-01-11T13:35:14.207Z,1.70
2019-01-11T13:37:42.661Z,1.70
2019-01-11T13:40:22.163Z,1.80
2019-01-11T13:42:50.893Z,1.80
2019-01-11T13:45:19.325Z,1.60
2019-01-11T13:47:47.700Z,1.50
2019-01-11T13:50:22.154Z,1.60
2019-01-11T13:52:51.019Z,1.70
2019-01-11T13:55:19.430Z,1.80
2019-01-11T13:57:48.040Z,1.80
2019-01-11T14:00:16.506Z,1.80
2019-01-11T14:02:44.971Z,1.80
2019-01-11T14:05:13.305Z,1.90
2019-01-11T14:07:41.700Z,1.90
2019-01-11T14:10:10.208Z,1.90
2019-01-11T14:12:38.593Z,2.00
2019-01-11T14:15:09.367Z,2.00
2019-01-11T14:17:38.064Z,2.00
2019-01-11T14:20:09.783Z,2.10
2019-01-11T14:22:38.545Z,2.10
2019-01-11T14:25:09.766Z,2.10
2019-01-11T14:27:38.254Z,1.90
2019-01-11T14:30:13.109Z,1.80
2019-01-11T14:32:41.466Z,1.80
2019-01-11T14:35:10.184Z,1.90
2019-01-11T14:37:38.740Z,1.90
2019-01-11T14:40:12.877Z,1.90
2019-01-11T14:42:41.848Z,1.90
2019-01-11T14:45:12.673Z,1.90
2019-01-11T14:47:41.276Z,1.90
2019-01-11T14:50:17.308Z,1.90
2019-01-11T14:52:45.681Z,2.00
2019-01-11T14:55:14.473Z,1.90
2019-01-11T14:57:42.940Z,1.90
2019-01-11T15:00:17.218Z,1.60
2019-01-11T15:02:45.659Z,1.60
2019-01-11T15:05:15.357Z,1.60
2019-01-11T15:07:44.079Z,1.60
2019-01-11T15:10:14.274Z,1.70
2019-01-11T15:12:43.242Z,1.70
2019-01-11T15:15:11.585Z,1.60
2019-01-11T15:17:40.201Z,1.70
2019-01-11T15:20:11.589Z,1.70
2019-01-11T15:22:39.920Z,1.80
2019-01-11T15:25:09.970Z,1.70
2019-01-11T15:27:38.711Z,1.70
2019-01-11T15:30:13.052Z,1.70
2019-01-11T15:32:41.809Z,1.70
2019-01-11T15:35:10.258Z,1.80
2019-01-11T15:37:38.903Z,1.80
2019-01-11T15:40:19.395Z,1.80
2019-01-11T15:42:48.014Z,1.80
2019-01-11T15:45:16.352Z,1.80
2019-01-11T15:47:44.676Z,1.90
2019-01-11T15:50:32.689Z,1.90
2019-01-11T15:53:01.115Z,1.90
2019-01-11T15:55:29.553Z,1.90
2019-01-11T15:57:58.082Z,1.90
2019-01-11T16:00:26.482Z,1.90
2019-01-11T16:02:54.954Z,2.00
2019-01-11T16:05:23.317Z,2.00
2019-01-11T16:07:51.996Z,2.00
2019-01-11T16:10:22.527Z,1.90
2019-01-11T16:12:50.892Z,1.90
2019-01-11T16:15:44.157Z,2.10
2019-01-11T16:18:15.850Z,2.10
2019-01-11T16:20:46.859Z,2.00
2019-01-11T16:23:15.603Z,2.00
2019-01-11T16:25:43.985Z,1.90
2019-01-11T16:28:12.761Z,1.90
2019-01-11T16:30:41.452Z,1.90
2019-01-11T16:33:09.863Z,1.90
2019-01-11T16:35:41.871Z,1.90
2019-01-11T16:38:13.593Z,1.80
2019-01-11T16:40:42.347Z,1.80
2019-01-11T16:43:10.808Z,1.80
2019-01-11T16:45:39.476Z,1.80
2019-01-11T16:48:07.877Z,1.80
2019-01-11T16:50:36.241Z,1.80
2019-01-11T16:53:04.690Z,1.80
2019-01-11T16:55:33.029Z,1.70
2019-01-11T16:58:01.778Z,1.70
2019-01-11T17:00:30.524Z,1.50
2019-01-11T17:02:58.932Z,1.40
2019-01-11T17:05:27.463Z,1.30
2019-01-11T17:07:56.246Z,1.40
2019-01-11T17:10:24.892Z,1.40
2019-01-11T17:12:53.215Z,1.50
2019-01-11T17:15:21.657Z,1.50
2019-01-11T17:17:49.985Z,1.50
2019-01-11T17:20:18.800Z,1.50
2019-01-11T17:22:52.906Z,1.60
2019-01-11T17:25:17.399Z,1.60
2019-01-11T17:27:45.892Z,1.60
2019-01-11T17:30:16.170Z,1.60
2019-01-11T17:32:44.855Z,1.60
2019-01-11T17:35:13.181Z,1.60
2019-01-11T17:37:41.522Z,1.70
2019-01-11T17:40:11.864Z,1.70
2019-01-11T17:42:40.368Z,1.70
2019-01-11T17:45:11.185Z,1.70
2019-01-11T17:47:39.797Z,1.60
2019-01-11T17:50:14.227Z,1.60
2019-01-11T17:52:42.863Z,1.70
2019-01-11T17:55:12.044Z,1.60
2019-01-11T17:57:40.443Z,1.60
2019-01-11T18:00:11.806Z,1.60
2019-01-11T18:02:40.197Z,1.60
2019-01-11T18:05:10.697Z,1.60
2019-01-11T18:07:39.168Z,1.60
2019-01-11T18:10:09.784Z,1.60
2019-01-11T18:12:38.395Z,1.60
2019-01-11T18:15:10.052Z,1.60
2019-01-11T18:17:38.495Z,1.60
2019-01-11T18:20:16.166Z,1.50
2019-01-11T18:22:44.606Z,1.60
2019-01-11T18:25:13.945Z,1.60
2019-01-11T18:27:42.577Z,1.60
2019-01-11T18:30:17.357Z,1.60
2019-01-11T18:32:46.106Z,1.50
2019-01-11T18:35:15.189Z,1.50
2019-01-11T18:37:44.248Z,1.50
2019-01-11T18:40:15.878Z,1.50
2019-01-11T18:42:44.308Z,1.50
2019-01-11T18:45:12.741Z,1.50
2019-01-11T18:47:41.235Z,1.50
2019-01-11T18:50:15.132Z,1.50
2019-01-11T18:52:43.588Z,1.50
2019-01-11T18:55:12.180Z,1.40
2019-01-11T18:57:40.704Z,1.40
2019-01-11T19:00:21.078Z,1.40
2019-01-11T19:02:49.688Z,1.40
2019-01-11T19:05:18.118Z,1.40
2019-01-11T19:07:46.829Z,1.50
2019-01-11T19:10:17.718Z,1.50
2019-01-11T19:12:46.192Z,1.40
2019-01-11T19:15:23.653Z,1.40
2019-01-11T19:17:55.875Z,1.50
2019-01-11T19:20:28.017Z,1.40
2019-01-11T19:22:56.576Z,1.50
2019-01-11T19:25:25.123Z,1.50
2019-01-11T19:27:53.625Z,1.50
2019-01-11T19:30:26.597Z,1.40
2019-01-11T19:32:54.901Z,1.30
2019-01-11T19:35:23.331Z,1.40
2019-01-11T19:37:54.957Z,1.40
2019-01-11T19:40:24.635Z,1.30
2019-01-11T19:42:53.105Z,1.30
2019-01-11T19:45:21.593Z,1.30
2019-01-11T19:47:50.205Z,1.30
2019-01-11T19:50:22.602Z,1.30
2019-01-11T19:52:51.024Z,1.30
2019-01-11T19:55:19.868Z,1.30
2019-01-11T19:57:48.399Z,1.30
2019-01-11T20:00:22.395Z,1.30
2019-01-11T20:02:50.988Z,1.20
2019-01-11T20:05:19.812Z,1.30
2019-01-11T20:07:50.211Z,1.30
2019-01-11T20:10:24.761Z,1.30
2019-01-11T20:12:53.273Z,1.30
2019-01-11T20:15:21.915Z,1.30
2019-01-11T20:17:50.695Z,1.30
2019-01-11T20:20:19.129Z,1.30
2019-01-11T20:22:47.822Z,1.20
2019-01-11T20:25:21.786Z,1.30
2019-01-11T20:27:50.561Z,1.30
2019-01-11T20:30:23.986Z,1.30
2019-01-11T20:32:52.453Z,1.30
2019-01-11T20:35:20.882Z,1.30
2019-01-11T20:37:49.906Z,1.30
2019-01-11T20:40:18.900Z,1.30
2019-01-11T20:42:50.465Z,1.20
2019-01-11T20:45:20.292Z,1.30
2019-01-11T20:47:49.143Z,1.30
2019-01-11T20:50:20.064Z,1.30
2019-01-11T20:52:48.833Z,1.30
2019-01-11T20:55:17.358Z,1.30
2019-01-11T20:57:46.185Z,1.30
2019-01-11T21:00:17.795Z,1.30
2019-01-11T21:02:46.261Z,1.30
2019-01-11T21:05:14.659Z,1.30
2019-01-11T21:07:43.265Z,1.30
2019-01-11T21:10:12.728Z,1.30
2019-01-11T21:12:42.260Z,1.30
2019-01-11T21:15:14.209Z,1.30
2019-01-11T21:17:44.686Z,1.30
2019-01-11T21:20:18.849Z,1.30
2019-01-11T21:22:48.803Z,1.30
2019-01-11T21:25:19.109Z,1.30
2019-01-11T21:27:48.080Z,1.30
2019-01-11T21:30:57.515Z,1.30
2019-01-11T21:33:25.264Z,1.30
2019-01-11T21:35:54.136Z,1.40
2019-01-11T21:38:25.195Z,1.50
2019-01-11T21:40:53.685Z,1.60
2019-01-11T21:43:23.317Z,1.50
2019-01-11T21:45:54.581Z,1.50
2019-01-11T21:48:23.121Z,1.50
2019-01-11T21:50:51.821Z,1.50
2019-01-11T21:53:20.509Z,1.40
2019-01-11T21:55:49.214Z,1.40
2019-01-11T21:58:17.677Z,1.30
2019-01-11T22:00:46.089Z,1.30
2019-01-11T22:03:14.463Z,1.30
2019-01-11T22:05:42.802Z,1.40
2019-01-11T22:08:11.399Z,1.40
2019-01-11T22:10:39.915Z,1.40
2019-01-11T22:13:08.522Z,1.40
2019-01-11T22:15:37.304Z,1.40
2019-01-11T22:18:05.609Z,1.40
2019-01-11T22:20:38.144Z,1.40
2019-01-11T22:23:06.632Z,1.40
2019-01-11T22:25:35.109Z,1.40
2019-01-11T22:28:03.951Z,1.40
2019-01-11T22:30:32.422Z,1.40
2019-01-11T22:33:00.822Z,1.40
2019-01-11T22:35:29.658Z,1.50
2019-01-11T22:37:58.387Z,1.40
2019-01-11T22:40:26.804Z,1.40
2019-01-11T22:42:57.303Z,1.50
2019-01-11T22:45:26.100Z,1.50
2019-01-11T22:47:54.649Z,1.50
2019-01-11T22:50:23.637Z,1.40
2019-01-11T22:52:52.462Z,1.50
2019-01-11T22:55:20.998Z,1.50
2019-01-11T22:57:49.564Z,1.50
2019-01-11T23:00:37.097Z,1.50
2019-01-11T23:03:45.083Z,1.50
2019-01-11T23:06:23.247Z,1.50
2019-01-11T23:08:52.939Z,1.50
2019-01-11T23:11:27.362Z,1.50
2019-01-11T23:13:57.512Z,1.40
2019-01-11T23:16:29.473Z,1.50
2019-01-11T23:18:58.057Z,1.50
2019-01-11T23:21:33.023Z,1.50
2019-01-11T23:24:01.418Z,1.50
2019-01-11T23:26:30.157Z,1.60
2019-01-11T23:28:58.788Z,1.60
2019-01-11T23:31:27.170Z,1.60
2019-01-11T23:33:55.766Z,1.50
2019-01-11T23:36:24.217Z,1.50
2019-01-11T23:38:52.810Z,1.50
2019-01-11T23:41:21.452Z,1.60
2019-01-11T23:43:49.827Z,1.60
2019-01-11T23:46:18.318Z,1.60
2019-01-11T23:48:46.697Z,1.60
2019-01-11T23:51:15.008Z,1.50
2019-01-11T23:53:43.827Z,1.50
2019-01-11T23:56:12.352Z,1.60
2019-01-11T23:58:40.689Z,1.60
